sensor_id;sensor_type;location;lat;lon;timestamp;P1;durP1;ratioP1;P2;durP2;ratioP2
55292;SDS011;41157;53.560;10.098;2023-02-14T00:01:37;39.47;;;22.93;;
55292;SDS011;41157;53.560;10.098;2023-02-14T00:04:04;36.90;;;23.30;;
55292;SDS011;41157;53.560;10.098;2023-02-14T00:06:33;37.30;;;22.57;;
55292;SDS011;41157;53.560;10.098;2023-02-14T00:09:02;37.77;;;23.10;;
55292;SDS011;41157;53.560;10.098;2023-02-14T00:11:29;41.03;;;23.60;;
55292;SDS011;41157;53.560;10.098;2023-02-14T00:13:57;37.13;;;23.13;;
55292;SDS011;41157;53.560;10.098;2023-02-14T00:16:41;38.07;;;23.10;;
55292;SDS011;41157;53.560;10.098;2023-02-14T00:19:10;37.33;;;23.77;;
55292;SDS011;41157;53.560;10.098;2023-02-14T00:21:38;39.00;;;22.07;;
55292;SDS011;41157;53.560;10.098;2023-02-14T00:24:06;39.30;;;22.83;;
55292;SDS011;41157;53.560;10.098;2023-02-14T00:26:33;37.87;;;22.17;;
55292;SDS011;41157;53.560;10.098;2023-02-14T00:29:02;39.20;;;22.07;;
55292;SDS011;41157;53.560;10.098;2023-02-14T00:31:29;38.53;;;22.70;;
55292;SDS011;41157;53.560;10.098;2023-02-14T00:33:56;37.63;;;22.53;;
55292;SDS011;41157;53.560;10.098;2023-02-14T00:36:23;38.27;;;22.07;;
55292;SDS011;41157;53.560;10.098;2023-02-14T00:38:51;37.23;;;22.33;;
55292;SDS011;41157;53.560;10.098;2023-02-14T00:41:18;37.37;;;22.33;;
55292;SDS011;41157;53.560;10.098;2023-02-14T00:43:46;35.27;;;21.43;;
55292;SDS011;41157;53.560;10.098;2023-02-14T00:46:13;39.10;;;23.23;;
55292;SDS011;41157;53.560;10.098;2023-02-14T00:48:40;42.27;;;23.33;;
55292;SDS011;41157;53.560;10.098;2023-02-14T00:51:08;38.80;;;24.10;;
55292;SDS011;41157;53.560;10.098;2023-02-14T00:53:35;38.07;;;23.33;;
55292;SDS011;41157;53.560;10.098;2023-02-14T00:56:03;42.83;;;24.07;;
55292;SDS011;41157;53.560;10.098;2023-02-14T00:58:30;38.97;;;23.30;;
55292;SDS011;41157;53.560;10.098;2023-02-14T01:00:58;37.33;;;22.23;;
55292;SDS011;41157;53.560;10.098;2023-02-14T01:03:25;41.03;;;22.37;;
55292;SDS011;41157;53.560;10.098;2023-02-14T01:05:52;39.30;;;22.17;;
55292;SDS011;41157;53.560;10.098;2023-02-14T01:08:19;38.77;;;21.73;;
55292;SDS011;41157;53.560;10.098;2023-02-14T01:10:46;38.67;;;22.17;;
55292;SDS011;41157;53.560;10.098;2023-02-14T01:13:15;39.60;;;22.83;;
55292;SDS011;41157;53.560;10.098;2023-02-14T01:15:43;37.07;;;21.87;;
55292;SDS011;41157;53.560;10.098;2023-02-14T01:18:10;40.63;;;21.67;;
55292;SDS011;41157;53.560;10.098;2023-02-14T01:20:37;37.70;;;21.30;;
55292;SDS011;41157;53.560;10.098;2023-02-14T01:23:05;40.60;;;22.63;;
55292;SDS011;41157;53.560;10.098;2023-02-14T01:25:32;42.97;;;24.23;;
55292;SDS011;41157;53.560;10.098;2023-02-14T01:27:59;37.60;;;22.73;;
55292;SDS011;41157;53.560;10.098;2023-02-14T01:30:27;34.67;;;22.10;;
55292;SDS011;41157;53.560;10.098;2023-02-14T01:32:54;41.63;;;23.40;;
55292;SDS011;41157;53.560;10.098;2023-02-14T01:35:23;38.93;;;22.63;;
55292;SDS011;41157;53.560;10.098;2023-02-14T01:37:50;37.70;;;23.17;;
55292;SDS011;41157;53.560;10.098;2023-02-14T01:40:17;35.67;;;22.80;;
55292;SDS011;41157;53.560;10.098;2023-02-14T01:42:44;42.27;;;23.87;;
55292;SDS011;41157;53.560;10.098;2023-02-14T01:45:14;38.53;;;23.43;;
55292;SDS011;41157;53.560;10.098;2023-02-14T01:47:43;37.77;;;22.97;;
55292;SDS011;41157;53.560;10.098;2023-02-14T01:50:13;40.13;;;23.03;;
55292;SDS011;41157;53.560;10.098;2023-02-14T01:52:41;37.73;;;23.00;;
55292;SDS011;41157;53.560;10.098;2023-02-14T01:55:11;37.87;;;23.37;;
55292;SDS011;41157;53.560;10.098;2023-02-14T01:57:41;41.60;;;24.50;;
55292;SDS011;41157;53.560;10.098;2023-02-14T02:00:09;36.90;;;21.93;;
55292;SDS011;41157;53.560;10.098;2023-02-14T02:05:26;41.37;;;23.57;;
55292;SDS011;41157;53.560;10.098;2023-02-14T02:07:54;42.97;;;24.80;;
55292;SDS011;41157;53.560;10.098;2023-02-14T02:10:23;44.27;;;24.20;;
55292;SDS011;41157;53.560;10.098;2023-02-14T02:12:51;41.30;;;23.83;;
55292;SDS011;41157;53.560;10.098;2023-02-14T02:15:18;45.33;;;24.87;;
55292;SDS011;41157;53.560;10.098;2023-02-14T02:17:48;43.70;;;25.67;;
55292;SDS011;41157;53.560;10.098;2023-02-14T02:20:43;40.53;;;25.07;;
55292;SDS011;41157;53.560;10.098;2023-02-14T02:26:14;45.57;;;24.33;;
55292;SDS011;41157;53.560;10.098;2023-02-14T02:28:52;39.67;;;23.87;;
55292;SDS011;41157;53.560;10.098;2023-02-14T02:31:31;40.67;;;24.53;;
55292;SDS011;41157;53.560;10.098;2023-02-14T02:34:11;40.40;;;23.97;;
55292;SDS011;41157;53.560;10.098;2023-02-14T02:36:48;43.97;;;25.00;;
55292;SDS011;41157;53.560;10.098;2023-02-14T02:39:22;42.73;;;25.47;;
55292;SDS011;41157;53.560;10.098;2023-02-14T02:41:59;38.07;;;23.13;;
55292;SDS011;41157;53.560;10.098;2023-02-14T02:44:28;44.73;;;24.50;;
55292;SDS011;41157;53.560;10.098;2023-02-14T02:47:01;43.00;;;24.70;;
55292;SDS011;41157;53.560;10.098;2023-02-14T02:49:35;40.97;;;24.20;;
55292;SDS011;41157;53.560;10.098;2023-02-14T02:52:24;42.50;;;23.47;;
55292;SDS011;41157;53.560;10.098;2023-02-14T02:55:12;39.63;;;23.53;;
55292;SDS011;41157;53.560;10.098;2023-02-14T02:57:39;40.63;;;22.73;;
55292;SDS011;41157;53.560;10.098;2023-02-14T03:00:08;41.40;;;23.30;;
55292;SDS011;41157;53.560;10.098;2023-02-14T03:02:36;46.40;;;25.33;;
55292;SDS011;41157;53.560;10.098;2023-02-14T03:05:18;43.67;;;26.07;;
55292;SDS011;41157;53.560;10.098;2023-02-14T03:07:47;43.97;;;25.20;;
55292;SDS011;41157;53.560;10.098;2023-02-14T03:10:15;46.10;;;24.87;;
55292;SDS011;41157;53.560;10.098;2023-02-14T03:12:45;44.00;;;24.47;;
55292;SDS011;41157;53.560;10.098;2023-02-14T03:15:17;43.87;;;24.63;;
55292;SDS011;41157;53.560;10.098;2023-02-14T03:17:48;46.30;;;25.17;;
55292;SDS011;41157;53.560;10.098;2023-02-14T03:20:21;42.33;;;24.97;;
55292;SDS011;41157;53.560;10.098;2023-02-14T03:22:50;42.63;;;25.17;;
55292;SDS011;41157;53.560;10.098;2023-02-14T03:25:29;42.53;;;24.87;;
55292;SDS011;41157;53.560;10.098;2023-02-14T03:28:00;44.83;;;23.80;;
55292;SDS011;41157;53.560;10.098;2023-02-14T03:30:31;45.17;;;25.03;;
55292;SDS011;41157;53.560;10.098;2023-02-14T03:33:07;47.43;;;25.33;;
55292;SDS011;41157;53.560;10.098;2023-02-14T03:35:39;42.53;;;24.87;;
55292;SDS011;41157;53.560;10.098;2023-02-14T03:38:12;40.40;;;24.57;;
55292;SDS011;41157;53.560;10.098;2023-02-14T03:40:41;44.30;;;25.03;;
55292;SDS011;41157;53.560;10.098;2023-02-14T03:43:11;47.23;;;26.07;;
55292;SDS011;41157;53.560;10.098;2023-02-14T03:45:39;46.20;;;26.13;;
55292;SDS011;41157;53.560;10.098;2023-02-14T03:48:09;43.27;;;24.87;;
55292;SDS011;41157;53.560;10.098;2023-02-14T03:50:36;50.30;;;24.67;;
55292;SDS011;41157;53.560;10.098;2023-02-14T03:53:04;46.90;;;26.40;;
55292;SDS011;41157;53.560;10.098;2023-02-14T03:55:35;43.67;;;24.10;;
55292;SDS011;41157;53.560;10.098;2023-02-14T03:58:05;40.57;;;22.73;;
55292;SDS011;41157;53.560;10.098;2023-02-14T04:00:35;41.90;;;24.80;;
55292;SDS011;41157;53.560;10.098;2023-02-14T04:03:04;40.57;;;23.83;;
55292;SDS011;41157;53.560;10.098;2023-02-14T04:05:32;40.90;;;24.27;;
55292;SDS011;41157;53.560;10.098;2023-02-14T04:07:59;44.17;;;24.17;;
55292;SDS011;41157;53.560;10.098;2023-02-14T04:10:26;46.70;;;24.37;;
55292;SDS011;41157;53.560;10.098;2023-02-14T04:12:54;43.47;;;23.83;;
55292;SDS011;41157;53.560;10.098;2023-02-14T04:15:21;41.80;;;24.60;;
55292;SDS011;41157;53.560;10.098;2023-02-14T04:17:48;40.03;;;23.03;;
55292;SDS011;41157;53.560;10.098;2023-02-14T04:20:33;42.37;;;24.67;;
55292;SDS011;41157;53.560;10.098;2023-02-14T04:23:01;42.73;;;24.30;;
55292;SDS011;41157;53.560;10.098;2023-02-14T04:25:28;41.90;;;23.80;;
55292;SDS011;41157;53.560;10.098;2023-02-14T04:27:56;40.37;;;24.03;;
55292;SDS011;41157;53.560;10.098;2023-02-14T04:30:23;41.07;;;23.57;;
55292;SDS011;41157;53.560;10.098;2023-02-14T04:32:50;46.33;;;24.47;;
55292;SDS011;41157;53.560;10.098;2023-02-14T04:35:17;43.43;;;23.17;;
55292;SDS011;41157;53.560;10.098;2023-02-14T04:37:44;47.03;;;24.37;;
55292;SDS011;41157;53.560;10.098;2023-02-14T04:40:12;41.33;;;22.90;;
55292;SDS011;41157;53.560;10.098;2023-02-14T04:42:41;44.67;;;24.50;;
55292;SDS011;41157;53.560;10.098;2023-02-14T04:45:09;45.77;;;24.37;;
55292;SDS011;41157;53.560;10.098;2023-02-14T04:47:36;42.97;;;23.60;;
55292;SDS011;41157;53.560;10.098;2023-02-14T04:50:04;46.90;;;24.37;;
55292;SDS011;41157;53.560;10.098;2023-02-14T04:52:31;40.73;;;24.30;;
55292;SDS011;41157;53.560;10.098;2023-02-14T04:54:58;43.67;;;24.37;;
55292;SDS011;41157;53.560;10.098;2023-02-14T04:57:25;41.80;;;23.87;;
55292;SDS011;41157;53.560;10.098;2023-02-14T04:59:52;39.77;;;22.73;;
55292;SDS011;41157;53.560;10.098;2023-02-14T05:02:20;41.17;;;24.53;;
55292;SDS011;41157;53.560;10.098;2023-02-14T05:04:47;45.23;;;24.70;;
55292;SDS011;41157;53.560;10.098;2023-02-14T05:07:15;41.07;;;23.80;;
55292;SDS011;41157;53.560;10.098;2023-02-14T05:09:42;45.07;;;24.90;;
55292;SDS011;41157;53.560;10.098;2023-02-14T05:12:09;41.77;;;23.47;;
55292;SDS011;41157;53.560;10.098;2023-02-14T05:14:36;45.47;;;23.73;;
55292;SDS011;41157;53.560;10.098;2023-02-14T05:17:03;45.73;;;24.70;;
55292;SDS011;41157;53.560;10.098;2023-02-14T05:19:31;44.57;;;24.27;;
55292;SDS011;41157;53.560;10.098;2023-02-14T05:21:58;43.63;;;24.67;;
55292;SDS011;41157;53.560;10.098;2023-02-14T05:24:25;45.73;;;26.23;;
55292;SDS011;41157;53.560;10.098;2023-02-14T05:26:52;41.97;;;24.70;;
55292;SDS011;41157;53.560;10.098;2023-02-14T05:29:19;46.57;;;25.20;;
55292;SDS011;41157;53.560;10.098;2023-02-14T05:31:46;41.37;;;24.07;;
55292;SDS011;41157;53.560;10.098;2023-02-14T05:34:13;48.37;;;24.83;;
55292;SDS011;41157;53.560;10.098;2023-02-14T05:36:42;43.63;;;24.70;;
55292;SDS011;41157;53.560;10.098;2023-02-14T05:39:09;47.57;;;24.77;;
55292;SDS011;41157;53.560;10.098;2023-02-14T05:41:38;46.87;;;25.30;;
55292;SDS011;41157;53.560;10.098;2023-02-14T05:44:05;45.77;;;25.17;;
55292;SDS011;41157;53.560;10.098;2023-02-14T05:46:32;45.97;;;24.77;;
55292;SDS011;41157;53.560;10.098;2023-02-14T05:48:59;40.97;;;24.10;;
55292;SDS011;41157;53.560;10.098;2023-02-14T05:51:26;47.33;;;26.17;;
55292;SDS011;41157;53.560;10.098;2023-02-14T05:53:55;47.70;;;26.23;;
55292;SDS011;41157;53.560;10.098;2023-02-14T05:56:23;42.73;;;24.47;;
55292;SDS011;41157;53.560;10.098;2023-02-14T05:58:51;43.57;;;24.43;;
55292;SDS011;41157;53.560;10.098;2023-02-14T06:01:18;46.87;;;24.33;;
55292;SDS011;41157;53.560;10.098;2023-02-14T06:03:45;45.13;;;24.23;;
55292;SDS011;41157;53.560;10.098;2023-02-14T06:06:12;44.77;;;24.67;;
55292;SDS011;41157;53.560;10.098;2023-02-14T06:08:39;47.53;;;25.30;;
55292;SDS011;41157;53.560;10.098;2023-02-14T06:11:07;43.83;;;24.30;;
55292;SDS011;41157;53.560;10.098;2023-02-14T06:13:34;43.47;;;25.27;;
55292;SDS011;41157;53.560;10.098;2023-02-14T06:16:01;43.10;;;23.90;;
55292;SDS011;41157;53.560;10.098;2023-02-14T06:18:28;47.47;;;25.40;;
55292;SDS011;41157;53.560;10.098;2023-02-14T06:20:55;45.00;;;23.97;;
55292;SDS011;41157;53.560;10.098;2023-02-14T06:23:22;42.07;;;22.53;;
55292;SDS011;41157;53.560;10.098;2023-02-14T06:25:50;46.63;;;23.17;;
55292;SDS011;41157;53.560;10.098;2023-02-14T06:28:18;44.97;;;24.73;;
55292;SDS011;41157;53.560;10.098;2023-02-14T06:30:45;46.27;;;24.63;;
55292;SDS011;41157;53.560;10.098;2023-02-14T06:33:12;42.67;;;23.50;;
55292;SDS011;41157;53.560;10.098;2023-02-14T06:35:40;42.47;;;23.67;;
55292;SDS011;41157;53.560;10.098;2023-02-14T06:38:07;37.70;;;21.67;;
55292;SDS011;41157;53.560;10.098;2023-02-14T06:40:34;43.47;;;23.07;;
55292;SDS011;41157;53.560;10.098;2023-02-14T06:43:01;43.13;;;22.20;;
55292;SDS011;41157;53.560;10.098;2023-02-14T06:45:29;42.83;;;22.47;;
55292;SDS011;41157;53.560;10.098;2023-02-14T06:47:57;39.70;;;21.83;;
55292;SDS011;41157;53.560;10.098;2023-02-14T06:50:24;40.43;;;22.57;;
55292;SDS011;41157;53.560;10.098;2023-02-14T06:52:51;41.50;;;24.47;;
55292;SDS011;41157;53.560;10.098;2023-02-14T06:55:18;44.13;;;23.30;;
55292;SDS011;41157;53.560;10.098;2023-02-14T06:57:45;43.77;;;22.53;;
55292;SDS011;41157;53.560;10.098;2023-02-14T07:00:12;40.57;;;22.60;;
55292;SDS011;41157;53.560;10.098;2023-02-14T07:02:41;41.63;;;22.63;;
55292;SDS011;41157;53.560;10.098;2023-02-14T07:05:08;41.17;;;22.37;;
55292;SDS011;41157;53.560;10.098;2023-02-14T07:07:36;40.47;;;23.23;;
55292;SDS011;41157;53.560;10.098;2023-02-14T07:10:03;43.30;;;23.17;;
55292;SDS011;41157;53.560;10.098;2023-02-14T07:12:30;44.10;;;23.90;;
55292;SDS011;41157;53.560;10.098;2023-02-14T07:14:58;44.03;;;23.93;;
55292;SDS011;41157;53.560;10.098;2023-02-14T07:17:26;43.27;;;23.60;;
55292;SDS011;41157;53.560;10.098;2023-02-14T07:19:54;38.83;;;22.73;;
55292;SDS011;41157;53.560;10.098;2023-02-14T07:22:21;44.60;;;23.30;;
55292;SDS011;41157;53.560;10.098;2023-02-14T07:24:48;42.00;;;23.13;;
55292;SDS011;41157;53.560;10.098;2023-02-14T07:27:15;38.60;;;23.33;;
55292;SDS011;41157;53.560;10.098;2023-02-14T07:29:42;43.50;;;24.17;;
55292;SDS011;41157;53.560;10.098;2023-02-14T07:32:09;39.50;;;22.93;;
55292;SDS011;41157;53.560;10.098;2023-02-14T07:34:36;43.13;;;23.20;;
55292;SDS011;41157;53.560;10.098;2023-02-14T07:37:04;44.00;;;22.83;;
55292;SDS011;41157;53.560;10.098;2023-02-14T07:39:32;39.87;;;23.37;;
55292;SDS011;41157;53.560;10.098;2023-02-14T07:41:59;41.73;;;23.27;;
55292;SDS011;41157;53.560;10.098;2023-02-14T07:44:26;39.10;;;21.80;;
55292;SDS011;41157;53.560;10.098;2023-02-14T07:46:53;43.27;;;22.33;;
55292;SDS011;41157;53.560;10.098;2023-02-14T07:49:20;40.77;;;23.20;;
55292;SDS011;41157;53.560;10.098;2023-02-14T07:51:47;37.10;;;22.30;;
55292;SDS011;41157;53.560;10.098;2023-02-14T07:54:16;38.73;;;22.13;;
55292;SDS011;41157;53.560;10.098;2023-02-14T07:56:43;35.40;;;21.57;;
55292;SDS011;41157;53.560;10.098;2023-02-14T07:59:10;37.87;;;21.33;;
55292;SDS011;41157;53.560;10.098;2023-02-14T08:01:37;37.23;;;20.57;;
55292;SDS011;41157;53.560;10.098;2023-02-14T08:04:04;37.23;;;21.50;;
55292;SDS011;41157;53.560;10.098;2023-02-14T08:06:31;38.83;;;22.50;;
55292;SDS011;41157;53.560;10.098;2023-02-14T08:08:58;38.93;;;21.03;;
55292;SDS011;41157;53.560;10.098;2023-02-14T08:11:26;34.70;;;20.97;;
55292;SDS011;41157;53.560;10.098;2023-02-14T08:14:11;36.87;;;21.53;;
55292;SDS011;41157;53.560;10.098;2023-02-14T08:16:38;40.70;;;22.77;;
55292;SDS011;41157;53.560;10.098;2023-02-14T08:19:05;37.53;;;21.43;;
55292;SDS011;41157;53.560;10.098;2023-02-14T08:21:32;38.07;;;21.90;;
55292;SDS011;41157;53.560;10.098;2023-02-14T08:23:59;40.60;;;20.97;;
55292;SDS011;41157;53.560;10.098;2023-02-14T08:26:28;38.20;;;21.30;;
55292;SDS011;41157;53.560;10.098;2023-02-14T08:28:55;36.93;;;21.13;;
55292;SDS011;41157;53.560;10.098;2023-02-14T08:31:23;36.90;;;21.27;;
55292;SDS011;41157;53.560;10.098;2023-02-14T08:33:50;34.40;;;20.77;;
55292;SDS011;41157;53.560;10.098;2023-02-14T08:36:17;36.80;;;20.67;;
55292;SDS011;41157;53.560;10.098;2023-02-14T08:38:44;34.23;;;20.10;;
55292;SDS011;41157;53.560;10.098;2023-02-14T08:41:12;31.37;;;20.03;;
55292;SDS011;41157;53.560;10.098;2023-02-14T08:43:41;34.10;;;19.87;;
55292;SDS011;41157;53.560;10.098;2023-02-14T08:46:08;29.17;;;18.40;;
55292;SDS011;41157;53.560;10.098;2023-02-14T08:48:36;29.77;;;19.13;;
55292;SDS011;41157;53.560;10.098;2023-02-14T08:51:04;31.10;;;18.93;;
55292;SDS011;41157;53.560;10.098;2023-02-14T08:53:31;26.17;;;18.20;;
55292;SDS011;41157;53.560;10.098;2023-02-14T08:56:01;28.37;;;18.00;;
55292;SDS011;41157;53.560;10.098;2023-02-14T08:58:28;26.50;;;16.93;;
55292;SDS011;41157;53.560;10.098;2023-02-14T09:00:56;27.53;;;16.73;;
55292;SDS011;41157;53.560;10.098;2023-02-14T09:03:23;23.40;;;15.77;;
55292;SDS011;41157;53.560;10.098;2023-02-14T09:05:50;24.30;;;16.23;;
55292;SDS011;41157;53.560;10.098;2023-02-14T09:08:17;22.30;;;16.05;;
55292;SDS011;41157;53.560;10.098;2023-02-14T09:10:45;22.20;;;16.27;;
55292;SDS011;41157;53.560;10.098;2023-02-14T09:13:13;23.65;;;16.98;;
55292;SDS011;41157;53.560;10.098;2023-02-14T09:15:40;21.83;;;17.05;;
55292;SDS011;41157;53.560;10.098;2023-02-14T09:18:08;21.15;;;16.10;;
55292;SDS011;41157;53.560;10.098;2023-02-14T09:20:36;23.98;;;17.15;;
55292;SDS011;41157;53.560;10.098;2023-02-14T09:23:03;21.70;;;16.80;;
55292;SDS011;41157;53.560;10.098;2023-02-14T09:25:30;23.75;;;16.75;;
55292;SDS011;41157;53.560;10.098;2023-02-14T09:27:57;22.90;;;17.05;;
55292;SDS011;41157;53.560;10.098;2023-02-14T09:30:24;21.88;;;16.60;;
55292;SDS011;41157;53.560;10.098;2023-02-14T09:32:52;20.10;;;16.02;;
55292;SDS011;41157;53.560;10.098;2023-02-14T09:35:20;18.58;;;15.43;;
55292;SDS011;41157;53.560;10.098;2023-02-14T09:38:05;19.45;;;16.00;;
55292;SDS011;41157;53.560;10.098;2023-02-14T09:40:44;18.42;;;15.00;;
55292;SDS011;41157;53.560;10.098;2023-02-14T09:43:13;21.75;;;15.80;;
55292;SDS011;41157;53.560;10.098;2023-02-14T09:45:42;19.88;;;15.55;;
55292;SDS011;41157;53.560;10.098;2023-02-14T09:48:16;18.43;;;15.40;;
55292;SDS011;41157;53.560;10.098;2023-02-14T09:50:48;17.83;;;15.57;;
55292;SDS011;41157;53.560;10.098;2023-02-14T09:53:26;18.67;;;15.45;;
55292;SDS011;41157;53.560;10.098;2023-02-14T09:55:56;21.47;;;15.93;;
55292;SDS011;41157;53.560;10.098;2023-02-14T09:58:27;21.50;;;16.47;;
55292;SDS011;41157;53.560;10.098;2023-02-14T10:00:58;22.33;;;16.00;;
55292;SDS011;41157;53.560;10.098;2023-02-14T10:03:38;20.13;;;15.43;;
55292;SDS011;41157;53.560;10.098;2023-02-14T10:06:11;18.57;;;14.67;;
55292;SDS011;41157;53.560;10.098;2023-02-14T10:08:46;19.57;;;14.93;;
55292;SDS011;41157;53.560;10.098;2023-02-14T10:11:20;19.57;;;15.17;;
55292;SDS011;41157;53.560;10.098;2023-02-14T10:13:49;21.33;;;15.30;;
55292;SDS011;41157;53.560;10.098;2023-02-14T10:16:19;21.87;;;15.87;;
55292;SDS011;41157;53.560;10.098;2023-02-14T10:18:51;20.00;;;15.60;;
55292;SDS011;41157;53.560;10.098;2023-02-14T10:21:22;19.13;;;15.53;;
55292;SDS011;41157;53.560;10.098;2023-02-14T10:23:53;17.07;;;14.47;;
55292;SDS011;41157;53.560;10.098;2023-02-14T10:26:24;18.05;;;14.18;;
55292;SDS011;41157;53.560;10.098;2023-02-14T10:28:52;19.80;;;15.05;;
55292;SDS011;41157;53.560;10.098;2023-02-14T10:31:20;17.23;;;14.07;;
55292;SDS011;41157;53.560;10.098;2023-02-14T10:33:52;20.77;;;14.95;;
55292;SDS011;41157;53.560;10.098;2023-02-14T10:36:22;19.15;;;15.32;;
55292;SDS011;41157;53.560;10.098;2023-02-14T10:38:53;20.63;;;15.05;;
55292;SDS011;41157;53.560;10.098;2023-02-14T10:41:24;20.30;;;15.18;;
55292;SDS011;41157;53.560;10.098;2023-02-14T10:43:56;19.23;;;14.73;;
55292;SDS011;41157;53.560;10.098;2023-02-14T10:46:31;19.08;;;15.25;;
55292;SDS011;41157;53.560;10.098;2023-02-14T10:49:01;20.17;;;15.77;;
55292;SDS011;41157;53.560;10.098;2023-02-14T10:51:34;18.55;;;14.82;;
55292;SDS011;41157;53.560;10.098;2023-02-14T10:54:10;19.15;;;15.32;;
55292;SDS011;41157;53.560;10.098;2023-02-14T10:56:42;19.70;;;15.38;;
55292;SDS011;41157;53.560;10.098;2023-02-14T10:59:13;20.25;;;15.95;;
55292;SDS011;41157;53.560;10.098;2023-02-14T11:01:42;20.88;;;16.15;;
55292;SDS011;41157;53.560;10.098;2023-02-14T11:04:10;18.90;;;15.48;;
55292;SDS011;41157;53.560;10.098;2023-02-14T11:06:40;22.60;;;16.15;;
55292;SDS011;41157;53.560;10.098;2023-02-14T11:09:08;21.02;;;16.70;;
55292;SDS011;41157;53.560;10.098;2023-02-14T11:11:36;19.95;;;15.93;;
55292;SDS011;41157;53.560;10.098;2023-02-14T11:14:17;23.38;;;16.00;;
55292;SDS011;41157;53.560;10.098;2023-02-14T11:16:44;21.08;;;15.60;;
55292;SDS011;41157;53.560;10.098;2023-02-14T11:19:18;21.83;;;16.35;;
55292;SDS011;41157;53.560;10.098;2023-02-14T11:21:47;18.95;;;15.45;;
55292;SDS011;41157;53.560;10.098;2023-02-14T11:24:18;19.42;;;16.02;;
55292;SDS011;41157;53.560;10.098;2023-02-14T11:26:46;22.83;;;16.48;;
55292;SDS011;41157;53.560;10.098;2023-02-14T11:29:13;20.42;;;15.88;;
55292;SDS011;41157;53.560;10.098;2023-02-14T11:31:42;19.25;;;15.77;;
55292;SDS011;41157;53.560;10.098;2023-02-14T11:34:18;21.42;;;16.15;;
55292;SDS011;41157;53.560;10.098;2023-02-14T11:36:50;20.17;;;14.88;;
55292;SDS011;41157;53.560;10.098;2023-02-14T11:39:20;23.30;;;16.13;;
55292;SDS011;41157;53.560;10.098;2023-02-14T11:41:51;20.95;;;15.85;;
55292;SDS011;41157;53.560;10.098;2023-02-14T11:44:20;21.73;;;15.80;;
55292;SDS011;41157;53.560;10.098;2023-02-14T11:46:49;19.25;;;14.55;;
55292;SDS011;41157;53.560;10.098;2023-02-14T11:49:26;20.90;;;16.92;;
55292;SDS011;41157;53.560;10.098;2023-02-14T11:51:55;22.40;;;16.27;;
55292;SDS011;41157;53.560;10.098;2023-02-14T11:54:25;17.95;;;14.30;;
55292;SDS011;41157;53.560;10.098;2023-02-14T11:56:54;22.90;;;15.65;;
55292;SDS011;41157;53.560;10.098;2023-02-14T11:59:27;20.52;;;15.32;;
55292;SDS011;41157;53.560;10.098;2023-02-14T12:01:55;19.55;;;15.52;;
55292;SDS011;41157;53.560;10.098;2023-02-14T12:04:24;20.27;;;15.23;;
55292;SDS011;41157;53.560;10.098;2023-02-14T12:06:52;18.70;;;14.73;;
55292;SDS011;41157;53.560;10.098;2023-02-14T12:09:26;18.40;;;15.23;;
55292;SDS011;41157;53.560;10.098;2023-02-14T12:11:56;17.30;;;14.38;;
55292;SDS011;41157;53.560;10.098;2023-02-14T12:14:24;20.70;;;15.60;;
55292;SDS011;41157;53.560;10.098;2023-02-14T12:16:54;19.42;;;15.68;;
55292;SDS011;41157;53.560;10.098;2023-02-14T12:19:23;18.58;;;13.82;;
55292;SDS011;41157;53.560;10.098;2023-02-14T12:21:55;18.40;;;15.07;;
55292;SDS011;41157;53.560;10.098;2023-02-14T12:24:26;18.90;;;14.27;;
55292;SDS011;41157;53.560;10.098;2023-02-14T12:26:56;17.65;;;14.35;;
55292;SDS011;41157;53.560;10.098;2023-02-14T12:29:29;18.85;;;14.73;;
55292;SDS011;41157;53.560;10.098;2023-02-14T12:31:58;17.33;;;14.82;;
55292;SDS011;41157;53.560;10.098;2023-02-14T12:34:26;22.98;;;15.52;;
55292;SDS011;41157;53.560;10.098;2023-02-14T12:37:03;16.98;;;13.60;;
55292;SDS011;41157;53.560;10.098;2023-02-14T12:39:36;18.15;;;15.10;;
55292;SDS011;41157;53.560;10.098;2023-02-14T12:42:05;18.98;;;15.25;;
55292;SDS011;41157;53.560;10.098;2023-02-14T12:44:38;19.02;;;14.95;;
55292;SDS011;41157;53.560;10.098;2023-02-14T12:47:16;18.70;;;14.68;;
55292;SDS011;41157;53.560;10.098;2023-02-14T12:49:55;21.42;;;15.38;;
55292;SDS011;41157;53.560;10.098;2023-02-14T12:52:31;19.60;;;15.15;;
55292;SDS011;41157;53.560;10.098;2023-02-14T12:55:03;23.15;;;15.50;;
55292;SDS011;41157;53.560;10.098;2023-02-14T12:57:37;19.75;;;15.20;;
55292;SDS011;41157;53.560;10.098;2023-02-14T13:00:14;18.52;;;14.98;;
55292;SDS011;41157;53.560;10.098;2023-02-14T13:05:43;17.90;;;15.07;;
55292;SDS011;41157;53.560;10.098;2023-02-14T13:08:15;20.48;;;15.50;;
55292;SDS011;41157;53.560;10.098;2023-02-14T13:10:51;19.70;;;14.40;;
55292;SDS011;41157;53.560;10.098;2023-02-14T13:13:22;21.63;;;15.93;;
55292;SDS011;41157;53.560;10.098;2023-02-14T13:15:52;19.42;;;14.32;;
55292;SDS011;41157;53.560;10.098;2023-02-14T13:18:23;18.60;;;14.68;;
55292;SDS011;41157;53.560;10.098;2023-02-14T13:20:53;18.73;;;14.85;;
55292;SDS011;41157;53.560;10.098;2023-02-14T13:23:23;17.33;;;13.90;;
55292;SDS011;41157;53.560;10.098;2023-02-14T13:25:53;15.73;;;13.13;;
55292;SDS011;41157;53.560;10.098;2023-02-14T13:28:21;19.73;;;14.50;;
55292;SDS011;41157;53.560;10.098;2023-02-14T13:30:49;20.05;;;15.32;;
55292;SDS011;41157;53.560;10.098;2023-02-14T13:33:23;21.70;;;15.32;;
55292;SDS011;41157;53.560;10.098;2023-02-14T13:35:51;17.88;;;13.27;;
55292;SDS011;41157;53.560;10.098;2023-02-14T13:38:19;22.00;;;14.10;;
55292;SDS011;41157;53.560;10.098;2023-02-14T13:40:47;19.67;;;15.35;;
55292;SDS011;41157;53.560;10.098;2023-02-14T13:43:29;18.10;;;14.23;;
55292;SDS011;41157;53.560;10.098;2023-02-14T13:46:10;19.42;;;15.07;;
55292;SDS011;41157;53.560;10.098;2023-02-14T13:48:38;17.77;;;14.80;;
55292;SDS011;41157;53.560;10.098;2023-02-14T13:51:06;20.58;;;15.07;;
55292;SDS011;41157;53.560;10.098;2023-02-14T13:53:35;19.38;;;15.18;;
55292;SDS011;41157;53.560;10.098;2023-02-14T13:56:03;22.48;;;16.50;;
55292;SDS011;41157;53.560;10.098;2023-02-14T13:58:32;21.33;;;15.40;;
55292;SDS011;41157;53.560;10.098;2023-02-14T14:01:26;18.50;;;15.38;;
55292;SDS011;41157;53.560;10.098;2023-02-14T14:03:55;23.25;;;16.02;;
55292;SDS011;41157;53.560;10.098;2023-02-14T14:06:22;19.05;;;15.40;;
55292;SDS011;41157;53.560;10.098;2023-02-14T14:08:50;20.10;;;15.50;;
55292;SDS011;41157;53.560;10.098;2023-02-14T14:16:56;20.85;;;15.48;;
55292;SDS011;41157;53.560;10.098;2023-02-14T14:19:34;22.58;;;16.15;;
55292;SDS011;41157;53.560;10.098;2023-02-14T14:22:03;22.47;;;15.50;;
55292;SDS011;41157;53.560;10.098;2023-02-14T14:24:30;23.02;;;16.67;;
55292;SDS011;41157;53.560;10.098;2023-02-14T14:26:58;22.20;;;16.27;;
55292;SDS011;41157;53.560;10.098;2023-02-14T14:29:27;21.90;;;16.23;;
55292;SDS011;41157;53.560;10.098;2023-02-14T14:31:57;20.40;;;14.77;;
55292;SDS011;41157;53.560;10.098;2023-02-14T14:34:25;22.53;;;15.77;;
55292;SDS011;41157;53.560;10.098;2023-02-14T14:37:02;23.43;;;15.77;;